sensor_id;sensor_type;location;lat;lon;timestamp;P1;durP1;ratioP1;P2;durP2;ratioP2
21848;SDS011;11089;49.852;19.700;2023-05-07T00:00:17;16.40;;;11.23;;
21848;SDS011;11089;49.852;19.700;2023-05-07T00:03:21;16.98;;;11.10;;
21848;SDS011;11089;49.852;19.700;2023-05-07T00:06:22;18.67;;;12.18;;
21848;SDS011;11089;49.852;19.700;2023-05-07T00:09:23;18.65;;;11.77;;
21848;SDS011;11089;49.852;19.700;2023-05-07T00:12:24;17.05;;;11.38;;
21848;SDS011;11089;49.852;19.700;2023-05-07T00:15:25;19.02;;;11.52;;
21848;SDS011;11089;49.852;19.700;2023-05-07T00:18:26;19.30;;;12.18;;
21848;SDS011;11089;49.852;19.700;2023-05-07T00:21:27;20.15;;;12.45;;
21848;SDS011;11089;49.852;19.700;2023-05-07T00:24:28;16.35;;;10.98;;
21848;SDS011;11089;49.852;19.700;2023-05-07T00:27:29;20.02;;;11.82;;
21848;SDS011;11089;49.852;19.700;2023-05-07T00:30:30;18.40;;;11.45;;
21848;SDS011;11089;49.852;19.700;2023-05-07T00:33:31;18.65;;;11.05;;
21848;SDS011;11089;49.852;19.700;2023-05-07T00:36:32;16.50;;;10.07;;
21848;SDS011;11089;49.852;19.700;2023-05-07T00:39:33;15.27;;;10.32;;
21848;SDS011;11089;49.852;19.700;2023-05-07T00:42:34;17.58;;;10.48;;
21848;SDS011;11089;49.852;19.700;2023-05-07T00:45:35;17.63;;;10.90;;
21848;SDS011;11089;49.852;19.700;2023-05-07T00:48:36;18.55;;;10.75;;
21848;SDS011;11089;49.852;19.700;2023-05-07T00:51:37;17.48;;;10.73;;
21848;SDS011;11089;49.852;19.700;2023-05-07T00:54:38;18.80;;;10.73;;
21848;SDS011;11089;49.852;19.700;2023-05-07T00:57:41;19.88;;;10.85;;
21848;SDS011;11089;49.852;19.700;2023-05-07T01:00:42;17.80;;;10.93;;
21848;SDS011;11089;49.852;19.700;2023-05-07T01:03:43;18.33;;;11.43;;
21848;SDS011;11089;49.852;19.700;2023-05-07T01:06:44;19.58;;;11.13;;
21848;SDS011;11089;49.852;19.700;2023-05-07T01:09:46;19.85;;;11.70;;
21848;SDS011;11089;49.852;19.700;2023-05-07T01:12:47;21.67;;;10.82;;
21848;SDS011;11089;49.852;19.700;2023-05-07T01:15:49;17.55;;;10.93;;
21848;SDS011;11089;49.852;19.700;2023-05-07T01:18:51;16.95;;;11.38;;
21848;SDS011;11089;49.852;19.700;2023-05-07T01:21:51;17.33;;;11.35;;
21848;SDS011;11089;49.852;19.700;2023-05-07T01:25:02;19.67;;;11.23;;
21848;SDS011;11089;49.852;19.700;2023-05-07T01:28:04;18.02;;;11.07;;
21848;SDS011;11089;49.852;19.700;2023-05-07T01:31:05;19.58;;;11.75;;
21848;SDS011;11089;49.852;19.700;2023-05-07T01:34:08;21.38;;;13.35;;
21848;SDS011;11089;49.852;19.700;2023-05-07T01:37:11;19.33;;;11.27;;
21848;SDS011;11089;49.852;19.700;2023-05-07T01:40:13;20.08;;;12.00;;
21848;SDS011;11089;49.852;19.700;2023-05-07T01:43:14;21.92;;;12.88;;
21848;SDS011;11089;49.852;19.700;2023-05-07T01:46:15;22.33;;;13.35;;
21848;SDS011;11089;49.852;19.700;2023-05-07T01:49:17;20.40;;;12.57;;
21848;SDS011;11089;49.852;19.700;2023-05-07T01:52:18;22.55;;;12.50;;
21848;SDS011;11089;49.852;19.700;2023-05-07T01:55:19;20.33;;;12.00;;
21848;SDS011;11089;49.852;19.700;2023-05-07T01:58:20;19.80;;;12.23;;
21848;SDS011;11089;49.852;19.700;2023-05-07T02:01:21;24.17;;;13.70;;
21848;SDS011;11089;49.852;19.700;2023-05-07T02:04:22;22.98;;;13.65;;
21848;SDS011;11089;49.852;19.700;2023-05-07T02:07:24;26.63;;;14.63;;
21848;SDS011;11089;49.852;19.700;2023-05-07T02:10:25;23.80;;;14.68;;
21848;SDS011;11089;49.852;19.700;2023-05-07T02:13:29;23.70;;;13.68;;
21848;SDS011;11089;49.852;19.700;2023-05-07T02:16:32;24.50;;;13.60;;
21848;SDS011;11089;49.852;19.700;2023-05-07T02:19:33;24.40;;;14.35;;
21848;SDS011;11089;49.852;19.700;2023-05-07T02:22:34;26.48;;;15.75;;
21848;SDS011;11089;49.852;19.700;2023-05-07T02:25:35;29.52;;;15.63;;
21848;SDS011;11089;49.852;19.700;2023-05-07T02:28:36;30.73;;;16.40;;
21848;SDS011;11089;49.852;19.700;2023-05-07T02:31:37;25.90;;;15.48;;
21848;SDS011;11089;49.852;19.700;2023-05-07T02:34:38;29.35;;;16.73;;
21848;SDS011;11089;49.852;19.700;2023-05-07T02:37:39;33.40;;;16.08;;
21848;SDS011;11089;49.852;19.700;2023-05-07T02:40:40;29.80;;;16.73;;
21848;SDS011;11089;49.852;19.700;2023-05-07T02:43:41;30.50;;;16.40;;
21848;SDS011;11089;49.852;19.700;2023-05-07T02:46:41;27.23;;;16.60;;
21848;SDS011;11089;49.852;19.700;2023-05-07T02:49:42;28.60;;;17.48;;
21848;SDS011;11089;49.852;19.700;2023-05-07T02:52:43;31.27;;;17.00;;
21848;SDS011;11089;49.852;19.700;2023-05-07T02:55:44;29.17;;;17.50;;
21848;SDS011;11089;49.852;19.700;2023-05-07T02:58:45;31.50;;;18.73;;
21848;SDS011;11089;49.852;19.700;2023-05-07T03:01:46;32.72;;;18.67;;
21848;SDS011;11089;49.852;19.700;2023-05-07T03:04:48;29.35;;;17.13;;
21848;SDS011;11089;49.852;19.700;2023-05-07T03:07:49;33.78;;;17.50;;
21848;SDS011;11089;49.852;19.700;2023-05-07T03:10:50;31.08;;;17.83;;
21848;SDS011;11089;49.852;19.700;2023-05-07T03:13:51;33.17;;;17.13;;
21848;SDS011;11089;49.852;19.700;2023-05-07T03:16:52;29.10;;;16.83;;
21848;SDS011;11089;49.852;19.700;2023-05-07T03:19:53;30.90;;;17.83;;
21848;SDS011;11089;49.852;19.700;2023-05-07T03:22:54;30.50;;;18.05;;
21848;SDS011;11089;49.852;19.700;2023-05-07T03:25:55;29.45;;;17.20;;
21848;SDS011;11089;49.852;19.700;2023-05-07T03:28:56;27.70;;;16.55;;
21848;SDS011;11089;49.852;19.700;2023-05-07T03:31:57;29.00;;;16.23;;
21848;SDS011;11089;49.852;19.700;2023-05-07T03:34:58;30.55;;;16.30;;
21848;SDS011;11089;49.852;19.700;2023-05-07T03:37:59;28.30;;;15.85;;
21848;SDS011;11089;49.852;19.700;2023-05-07T03:41:00;27.13;;;15.52;;
21848;SDS011;11089;49.852;19.700;2023-05-07T03:44:01;28.40;;;16.60;;
21848;SDS011;11089;49.852;19.700;2023-05-07T03:47:02;28.98;;;15.85;;
21848;SDS011;11089;49.852;19.700;2023-05-07T03:50:04;26.92;;;15.25;;
21848;SDS011;11089;49.852;19.700;2023-05-07T03:53:05;25.83;;;14.38;;
21848;SDS011;11089;49.852;19.700;2023-05-07T03:56:06;29.85;;;15.88;;
21848;SDS011;11089;49.852;19.700;2023-05-07T03:59:07;29.73;;;15.75;;
21848;SDS011;11089;49.852;19.700;2023-05-07T04:02:08;26.38;;;14.77;;
21848;SDS011;11089;49.852;19.700;2023-05-07T04:05:09;25.65;;;14.98;;
21848;SDS011;11089;49.852;19.700;2023-05-07T04:08:10;29.55;;;14.98;;
21848;SDS011;11089;49.852;19.700;2023-05-07T04:11:11;28.63;;;15.80;;
21848;SDS011;11089;49.852;19.700;2023-05-07T04:14:12;32.42;;;17.10;;
21848;SDS011;11089;49.852;19.700;2023-05-07T04:17:13;29.15;;;15.38;;
21848;SDS011;11089;49.852;19.700;2023-05-07T04:20:14;29.13;;;15.73;;
21848;SDS011;11089;49.852;19.700;2023-05-07T04:23:16;27.92;;;14.82;;
21848;SDS011;11089;49.852;19.700;2023-05-07T04:26:17;31.52;;;14.60;;
21848;SDS011;11089;49.852;19.700;2023-05-07T04:29:18;27.10;;;14.05;;
21848;SDS011;11089;49.852;19.700;2023-05-07T04:32:19;24.73;;;12.15;;
21848;SDS011;11089;49.852;19.700;2023-05-07T04:35:20;20.98;;;11.80;;
21848;SDS011;11089;49.852;19.700;2023-05-07T04:38:21;21.23;;;12.30;;
21848;SDS011;11089;49.852;19.700;2023-05-07T04:41:23;19.98;;;11.48;;
21848;SDS011;11089;49.852;19.700;2023-05-07T04:44:25;25.35;;;11.50;;
21848;SDS011;11089;49.852;19.700;2023-05-07T04:47:26;20.17;;;10.63;;
21848;SDS011;11089;49.852;19.700;2023-05-07T04:50:27;23.73;;;11.52;;
21848;SDS011;11089;49.852;19.700;2023-05-07T04:53:28;21.75;;;11.52;;
21848;SDS011;11089;49.852;19.700;2023-05-07T04:56:29;25.88;;;12.18;;
21848;SDS011;11089;49.852;19.700;2023-05-07T04:59:30;23.05;;;12.32;;
21848;SDS011;11089;49.852;19.700;2023-05-07T05:02:31;23.90;;;12.55;;
21848;SDS011;11089;49.852;19.700;2023-05-07T05:05:32;24.13;;;12.75;;
21848;SDS011;11089;49.852;19.700;2023-05-07T05:08:33;24.60;;;13.27;;
21848;SDS011;11089;49.852;19.700;2023-05-07T05:11:34;24.02;;;11.98;;
21848;SDS011;11089;49.852;19.700;2023-05-07T05:14:34;20.73;;;12.00;;
21848;SDS011;11089;49.852;19.700;2023-05-07T05:17:35;19.75;;;10.75;;
21848;SDS011;11089;49.852;19.700;2023-05-07T05:20:37;20.52;;;10.52;;
21848;SDS011;11089;49.852;19.700;2023-05-07T05:23:37;16.73;;;10.38;;
21848;SDS011;11089;49.852;19.700;2023-05-07T05:26:39;14.02;;;8.65;;
21848;SDS011;11089;49.852;19.700;2023-05-07T05:29:40;11.27;;;7.13;;
21848;SDS011;11089;49.852;19.700;2023-05-07T05:32:41;8.45;;;6.28;;
21848;SDS011;11089;49.852;19.700;2023-05-07T05:35:42;8.70;;;5.60;;
21848;SDS011;11089;49.852;19.700;2023-05-07T05:38:43;9.80;;;6.13;;
21848;SDS011;11089;49.852;19.700;2023-05-07T05:41:44;9.05;;;5.55;;
21848;SDS011;11089;49.852;19.700;2023-05-07T05:44:45;12.88;;;6.13;;
21848;SDS011;11089;49.852;19.700;2023-05-07T05:47:46;9.80;;;5.70;;
21848;SDS011;11089;49.852;19.700;2023-05-07T05:50:47;13.15;;;5.50;;
21848;SDS011;11089;49.852;19.700;2023-05-07T05:53:48;7.07;;;5.10;;
21848;SDS011;11089;49.852;19.700;2023-05-07T05:56:49;7.55;;;5.05;;
21848;SDS011;11089;49.852;19.700;2023-05-07T05:59:50;7.65;;;4.93;;
21848;SDS011;11089;49.852;19.700;2023-05-07T06:02:51;6.10;;;4.57;;
21848;SDS011;11089;49.852;19.700;2023-05-07T06:05:52;8.75;;;4.65;;
21848;SDS011;11089;49.852;19.700;2023-05-07T06:08:53;4.90;;;4.00;;
21848;SDS011;11089;49.852;19.700;2023-05-07T06:11:54;5.57;;;4.05;;
21848;SDS011;11089;49.852;19.700;2023-05-07T06:14:54;4.97;;;3.42;;
21848;SDS011;11089;49.852;19.700;2023-05-07T06:17:55;5.53;;;4.00;;
21848;SDS011;11089;49.852;19.700;2023-05-07T06:20:57;7.13;;;4.30;;
21848;SDS011;11089;49.852;19.700;2023-05-07T06:23:58;6.40;;;4.43;;
21848;SDS011;11089;49.852;19.700;2023-05-07T06:26:59;7.40;;;5.10;;
21848;SDS011;11089;49.852;19.700;2023-05-07T06:30:00;6.22;;;4.85;;
21848;SDS011;11089;49.852;19.700;2023-05-07T06:33:01;6.18;;;4.78;;
21848;SDS011;11089;49.852;19.700;2023-05-07T06:36:02;6.35;;;4.75;;
21848;SDS011;11089;49.852;19.700;2023-05-07T06:39:03;6.85;;;4.72;;
21848;SDS011;11089;49.852;19.700;2023-05-07T06:42:04;5.78;;;5.00;;
21848;SDS011;11089;49.852;19.700;2023-05-07T06:45:06;5.00;;;4.43;;
21848;SDS011;11089;49.852;19.700;2023-05-07T06:48:08;5.68;;;4.25;;
21848;SDS011;11089;49.852;19.700;2023-05-07T06:51:09;5.40;;;4.38;;
21848;SDS011;11089;49.852;19.700;2023-05-07T06:54:11;5.88;;;4.43;;
21848;SDS011;11089;49.852;19.700;2023-05-07T06:57:11;8.15;;;4.53;;
21848;SDS011;11089;49.852;19.700;2023-05-07T07:00:13;4.45;;;3.78;;
21848;SDS011;11089;49.852;19.700;2023-05-07T07:03:14;6.18;;;4.70;;
21848;SDS011;11089;49.852;19.700;2023-05-07T07:06:15;4.32;;;3.30;;
21848;SDS011;11089;49.852;19.700;2023-05-07T07:09:16;4.95;;;3.38;;
21848;SDS011;11089;49.852;19.700;2023-05-07T07:12:17;4.65;;;3.28;;
21848;SDS011;11089;49.852;19.700;2023-05-07T07:15:19;3.75;;;3.00;;
21848;SDS011;11089;49.852;19.700;2023-05-07T07:18:20;5.45;;;3.60;;
21848;SDS011;11089;49.852;19.700;2023-05-07T07:21:21;4.47;;;3.78;;
21848;SDS011;11089;49.852;19.700;2023-05-07T07:24:22;5.72;;;3.97;;
21848;SDS011;11089;49.852;19.700;2023-05-07T07:27:23;4.70;;;3.65;;
21848;SDS011;11089;49.852;19.700;2023-05-07T07:30:24;4.90;;;4.22;;
21848;SDS011;11089;49.852;19.700;2023-05-07T07:33:26;5.57;;;4.47;;
21848;SDS011;11089;49.852;19.700;2023-05-07T07:36:27;5.28;;;4.35;;
21848;SDS011;11089;49.852;19.700;2023-05-07T07:39:28;7.15;;;4.88;;
21848;SDS011;11089;49.852;19.700;2023-05-07T07:42:29;6.95;;;5.38;;
21848;SDS011;11089;49.852;19.700;2023-05-07T07:45:30;7.63;;;5.70;;
21848;SDS011;11089;49.852;19.700;2023-05-07T07:48:31;7.15;;;5.68;;
21848;SDS011;11089;49.852;19.700;2023-05-07T07:51:31;9.23;;;6.22;;
21848;SDS011;11089;49.852;19.700;2023-05-07T07:54:32;8.65;;;6.97;;
21848;SDS011;11089;49.852;19.700;2023-05-07T07:57:33;13.02;;;7.97;;
21848;SDS011;11089;49.852;19.700;2023-05-07T08:00:34;9.45;;;7.40;;
21848;SDS011;11089;49.852;19.700;2023-05-07T08:03:36;9.75;;;7.93;;
21848;SDS011;11089;49.852;19.700;2023-05-07T08:06:38;11.25;;;7.95;;
21848;SDS011;11089;49.852;19.700;2023-05-07T08:09:39;8.93;;;7.20;;
21848;SDS011;11089;49.852;19.700;2023-05-07T08:12:40;9.63;;;6.95;;
21848;SDS011;11089;49.852;19.700;2023-05-07T08:15:41;9.60;;;6.63;;
21848;SDS011;11089;49.852;19.700;2023-05-07T08:18:42;10.20;;;7.00;;
21848;SDS011;11089;49.852;19.700;2023-05-07T08:21:44;8.00;;;5.80;;
21848;SDS011;11089;49.852;19.700;2023-05-07T08:24:45;7.47;;;5.80;;
21848;SDS011;11089;49.852;19.700;2023-05-07T08:27:46;6.50;;;5.47;;
21848;SDS011;11089;49.852;19.700;2023-05-07T08:30:47;8.25;;;5.15;;
21848;SDS011;11089;49.852;19.700;2023-05-07T08:33:48;6.30;;;5.10;;
21848;SDS011;11089;49.852;19.700;2023-05-07T08:36:48;6.95;;;5.90;;
21848;SDS011;11089;49.852;19.700;2023-05-07T08:39:50;11.27;;;6.60;;
21848;SDS011;11089;49.852;19.700;2023-05-07T08:42:51;7.28;;;5.35;;
21848;SDS011;11089;49.852;19.700;2023-05-07T08:45:53;7.07;;;5.80;;
21848;SDS011;11089;49.852;19.700;2023-05-07T08:48:55;7.25;;;5.05;;
21848;SDS011;11089;49.852;19.700;2023-05-07T08:51:56;8.25;;;5.72;;
21848;SDS011;11089;49.852;19.700;2023-05-07T08:54:58;9.20;;;6.30;;
21848;SDS011;11089;49.852;19.700;2023-05-07T08:58:00;9.68;;;5.93;;
21848;SDS011;11089;49.852;19.700;2023-05-07T09:01:03;8.20;;;5.80;;
21848;SDS011;11089;49.852;19.700;2023-05-07T09:04:12;5.85;;;4.63;;
21848;SDS011;11089;49.852;19.700;2023-05-07T09:07:13;4.80;;;4.00;;
21848;SDS011;11089;49.852;19.700;2023-05-07T09:10:14;5.32;;;4.30;;
21848;SDS011;11089;49.852;19.700;2023-05-07T09:13:15;6.78;;;5.45;;
21848;SDS011;11089;49.852;19.700;2023-05-07T09:16:18;6.53;;;5.07;;
21848;SDS011;11089;49.852;19.700;2023-05-07T09:19:25;7.47;;;4.95;;
21848;SDS011;11089;49.852;19.700;2023-05-07T09:22:26;11.15;;;6.63;;
21848;SDS011;11089;49.852;19.700;2023-05-07T09:25:28;6.70;;;5.65;;
21848;SDS011;11089;49.852;19.700;2023-05-07T09:28:30;6.13;;;5.13;;
21848;SDS011;11089;49.852;19.700;2023-05-07T09:31:31;5.43;;;4.25;;
21848;SDS011;11089;49.852;19.700;2023-05-07T09:34:32;5.50;;;4.50;;
21848;SDS011;11089;49.852;19.700;2023-05-07T09:37:34;6.07;;;4.30;;
21848;SDS011;11089;49.852;19.700;2023-05-07T09:40:36;6.82;;;4.22;;
21848;SDS011;11089;49.852;19.700;2023-05-07T09:43:38;6.05;;;4.10;;
21848;SDS011;11089;49.852;19.700;2023-05-07T09:46:41;5.50;;;4.60;;
21848;SDS011;11089;49.852;19.700;2023-05-07T09:49:46;6.32;;;4.65;;
21848;SDS011;11089;49.852;19.700;2023-05-07T09:52:48;6.65;;;4.70;;
21848;SDS011;11089;49.852;19.700;2023-05-07T09:55:50;6.97;;;4.53;;
21848;SDS011;11089;49.852;19.700;2023-05-07T09:58:55;6.70;;;4.68;;
21848;SDS011;11089;49.852;19.700;2023-05-07T10:02:00;4.72;;;4.20;;
21848;SDS011;11089;49.852;19.700;2023-05-07T10:05:01;6.78;;;4.72;;
21848;SDS011;11089;49.852;19.700;2023-05-07T10:08:03;6.18;;;5.50;;
21848;SDS011;11089;49.852;19.700;2023-05-07T10:11:04;5.80;;;4.80;;
21848;SDS011;11089;49.852;19.700;2023-05-07T10:14:06;6.60;;;4.50;;
21848;SDS011;11089;49.852;19.700;2023-05-07T10:17:07;8.25;;;5.50;;
21848;SDS011;11089;49.852;19.700;2023-05-07T10:20:09;9.52;;;5.82;;
21848;SDS011;11089;49.852;19.700;2023-05-07T10:23:12;6.30;;;5.10;;
21848;SDS011;11089;49.852;19.700;2023-05-07T10:26:15;7.28;;;6.35;;
21848;SDS011;11089;49.852;19.700;2023-05-07T10:29:21;7.93;;;5.63;;
21848;SDS011;11089;49.852;19.700;2023-05-07T10:32:36;10.85;;;6.55;;
21848;SDS011;11089;49.852;19.700;2023-05-07T10:35:45;9.50;;;6.40;;
21848;SDS011;11089;49.852;19.700;2023-05-07T10:38:47;11.82;;;6.47;;
21848;SDS011;11089;49.852;19.700;2023-05-07T10:41:48;16.42;;;6.22;;
21848;SDS011;11089;49.852;19.700;2023-05-07T10:44:50;11.25;;;7.75;;
21848;SDS011;11089;49.852;19.700;2023-05-07T10:51:20;11.57;;;6.93;;
21848;SDS011;11089;49.852;19.700;2023-05-07T10:54:25;10.85;;;6.82;;
21848;SDS011;11089;49.852;19.700;2023-05-07T10:57:35;14.40;;;7.10;;
21848;SDS011;11089;49.852;19.700;2023-05-07T11:03:37;12.43;;;8.38;;
21848;SDS011;11089;49.852;19.700;2023-05-07T11:13:53;12.98;;;6.90;;
21848;SDS011;11089;49.852;19.700;2023-05-07T11:17:00;9.48;;;6.80;;
21848;SDS011;11089;49.852;19.700;2023-05-07T11:20:03;9.80;;;6.82;;
21848;SDS011;11089;49.852;19.700;2023-05-07T11:23:05;10.68;;;6.80;;
21848;SDS011;11089;49.852;19.700;2023-05-07T11:26:06;8.63;;;6.07;;
21848;SDS011;11089;49.852;19.700;2023-05-07T11:29:12;6.75;;;5.68;;
21848;SDS011;11089;49.852;19.700;2023-05-07T11:32:14;9.50;;;6.03;;
21848;SDS011;11089;49.852;19.700;2023-05-07T11:35:16;9.02;;;5.43;;
21848;SDS011;11089;49.852;19.700;2023-05-07T11:38:17;6.38;;;5.03;;
21848;SDS011;11089;49.852;19.700;2023-05-07T11:41:19;7.40;;;4.90;;
21848;SDS011;11089;49.852;19.700;2023-05-07T11:44:20;6.75;;;5.03;;
21848;SDS011;11089;49.852;19.700;2023-05-07T11:47:21;7.05;;;5.53;;
21848;SDS011;11089;49.852;19.700;2023-05-07T11:50:22;6.65;;;5.50;;
21848;SDS011;11089;49.852;19.700;2023-05-07T11:53:26;6.70;;;4.57;;
21848;SDS011;11089;49.852;19.700;2023-05-07T11:56:28;5.75;;;4.60;;
21848;SDS011;11089;49.852;19.700;2023-05-07T11:59:29;7.45;;;4.88;;
21848;SDS011;11089;49.852;19.700;2023-05-07T12:02:30;6.63;;;5.38;;
21848;SDS011;11089;49.852;19.700;2023-05-07T12:05:31;7.85;;;4.82;;
21848;SDS011;11089;49.852;19.700;2023-05-07T12:08:32;7.35;;;5.13;;
21848;SDS011;11089;49.852;19.700;2023-05-07T12:11:36;7.95;;;5.18;;
21848;SDS011;11089;49.852;19.700;2023-05-07T12:14:40;6.47;;;5.20;;
21848;SDS011;11089;49.852;19.700;2023-05-07T12:17:42;8.38;;;5.57;;
21848;SDS011;11089;49.852;19.700;2023-05-07T12:20:44;8.05;;;5.47;;
21848;SDS011;11089;49.852;19.700;2023-05-07T12:23:45;7.57;;;5.65;;
21848;SDS011;11089;49.852;19.700;2023-05-07T12:26:46;8.13;;;5.90;;
21848;SDS011;11089;49.852;19.700;2023-05-07T12:29:48;8.88;;;6.15;;
21848;SDS011;11089;49.852;19.700;2023-05-07T12:32:53;7.30;;;5.47;;
21848;SDS011;11089;49.852;19.700;2023-05-07T12:35:55;7.10;;;5.82;;
21848;SDS011;11089;49.852;19.700;2023-05-07T12:38:58;8.70;;;6.20;;
21848;SDS011;11089;49.852;19.700;2023-05-07T12:42:00;10.07;;;6.20;;
21848;SDS011;11089;49.852;19.700;2023-05-07T12:45:10;7.68;;;5.78;;
21848;SDS011;11089;49.852;19.700;2023-05-07T12:48:12;8.52;;;6.15;;
21848;SDS011;11089;49.852;19.700;2023-05-07T12:51:13;8.30;;;6.00;;
21848;SDS011;11089;49.852;19.700;2023-05-07T12:57:37;7.57;;;5.63;;
21848;SDS011;11089;49.852;19.700;2023-05-07T13:00:39;7.32;;;6.00;;
21848;SDS011;11089;49.852;19.700;2023-05-07T13:03:43;6.68;;;5.20;;
21848;SDS011;11089;49.852;19.700;2023-05-07T13:06:49;6.50;;;5.18;;
21848;SDS011;11089;49.852;19.700;2023-05-07T13:09:50;6.70;;;5.60;;
21848;SDS011;11089;49.852;19.700;2023-05-07T13:12:51;7.68;;;5.50;;
21848;SDS011;11089;49.852;19.700;2023-05-07T13:15:52;6.10;;;4.65;;
21848;SDS011;11089;49.852;19.700;2023-05-07T13:18:53;8.63;;;5.05;;
21848;SDS011;11089;49.852;19.700;2023-05-07T13:21:54;6.78;;;4.80;;
21848;SDS011;11089;49.852;19.700;2023-05-07T13:24:55;8.20;;;5.60;;
21848;SDS011;11089;49.852;19.700;2023-05-07T13:27:56;6.40;;;5.25;;
21848;SDS011;11089;49.852;19.700;2023-05-07T13:30:57;6.13;;;5.22;;
21848;SDS011;11089;49.852;19.700;2023-05-07T13:33:58;6.35;;;5.10;;
21848;SDS011;11089;49.852;19.700;2023-05-07T13:36:59;7.90;;;4.88;;
21848;SDS011;11089;49.852;19.700;2023-05-07T13:40:01;7.13;;;5.75;;
21848;SDS011;11089;49.852;19.700;2023-05-07T13:43:02;8.77;;;6.00;;
21848;SDS011;11089;49.852;19.700;2023-05-07T13:46:03;6.50;;;5.45;;
21848;SDS011;11089;49.852;19.700;2023-05-07T13:49:04;6.40;;;5.75;;
21848;SDS011;11089;49.852;19.700;2023-05-07T13:52:05;9.93;;;6.28;;
21848;SDS011;11089;49.852;19.700;2023-05-07T13:55:06;7.68;;;5.65;;
21848;SDS011;11089;49.852;19.700;2023-05-07T13:58:07;6.82;;;5.45;;
21848;SDS011;11089;49.852;19.700;2023-05-07T14:01:08;8.85;;;6.70;;
21848;SDS011;11089;49.852;19.700;2023-05-07T14:04:09;8.68;;;5.85;;
21848;SDS011;11089;49.852;19.700;2023-05-07T14:07:11;7.93;;;5.70;;
21848;SDS011;11089;49.852;19.700;2023-05-07T14:10:12;6.38;;;5.47;;
21848;SDS011;11089;49.852;19.700;2023-05-07T14:13:13;7.20;;;5.65;;
21848;SDS011;11089;49.852;19.700;2023-05-07T14:16:14;7.78;;;5.57;;
21848;SDS011;11089;49.852;19.700;2023-05-07T14:19:15;9.52;;;6.55;;
21848;SDS011;11089;49.852;19.700;2023-05-07T14:22:16;7.28;;;6.03;;
21848;SDS011;11089;49.852;19.700;2023-05-07T14:25:17;10.85;;;6.40;;
21848;SDS011;11089;49.852;19.700;2023-05-07T14:28:18;9.00;;;6.50;;
21848;SDS011;11089;49.852;19.700;2023-05-07T14:31:19;9.70;;;6.70;;
21848;SDS011;11089;49.852;19.700;2023-05-07T14:34:21;9.82;;;6.20;;
21848;SDS011;11089;49.852;19.700;2023-05-07T14:37:22;9.10;;;6.78;;
21848;SDS011;11089;49.852;19.700;2023-05-07T14:40:24;10.25;;;7.15;;
21848;SDS011;11089;49.852;19.700;2023-05-07T14:43:25;11.38;;;7.07;;
21848;SDS011;11089;49.852;19.700;2023-05-07T14:46:26;12.60;;;8.13;;
21848;SDS011;11089;49.852;19.700;2023-05-07T14:49:27;11.32;;;7.78;;
21848;SDS011;11089;49.852;19.700;2023-05-07T14:52:28;12.32;;;7.07;;
21848;SDS011;11089;49.852;19.700;2023-05-07T14:55:29;9.30;;;7.00;;
21848;SDS011;11089;49.852;19.700;2023-05-07T14:58:30;9.20;;;6.75;;
21848;SDS011;11089;49.852;19.700;2023-05-07T15:01:31;8.70;;;6.40;;
21848;SDS011;11089;49.852;19.700;2023-05-07T15:04:32;7.85;;;6.07;;
21848;SDS011;11089;49.852;19.700;2023-05-07T15:07:33;8.63;;;6.35;;
21848;SDS011;11089;49.852;19.700;2023-05-07T15:10:37;9.95;;;5.55;;
21848;SDS011;11089;49.852;19.700;2023-05-07T15:13:43;10.85;;;6.10;;
21848;SDS011;11089;49.852;19.700;2023-05-07T15:16:44;8.10;;;6.00;;
21848;SDS011;11089;49.852;19.700;2023-05-07T15:19:45;8.32;;;5.93;;
21848;SDS011;11089;49.852;19.700;2023-05-07T15:22:46;8.35;;;5.70;;
21848;SDS011;11089;49.852;19.700;2023-05-07T15:25:47;8.10;;;6.00;;
21848;SDS011;11089;49.852;19.700;2023-05-07T15:28:48;9.77;;;5.93;;
21848;SDS011;11089;49.852;19.700;2023-05-07T15:31:49;8.27;;;5.43;;
21848;SDS011;11089;49.852;19.700;2023-05-07T15:34:51;9.85;;;6.80;;
21848;SDS011;11089;49.852;19.700;2023-05-07T15:37:52;8.73;;;6.07;;
21848;SDS011;11089;49.852;19.700;2023-05-07T15:40:54;7.55;;;5.70;;
21848;SDS011;11089;49.852;19.700;2023-05-07T15:43:55;8.95;;;6.30;;
21848;SDS011;11089;49.852;19.700;2023-05-07T15:46:56;7.82;;;6.43;;
21848;SDS011;11089;49.852;19.700;2023-05-07T15:49:57;7.95;;;5.80;;
21848;SDS011;11089;49.852;19.700;2023-05-07T15:52:58;8.85;;;6.70;;
21848;SDS011;11089;49.852;19.700;2023-05-07T15:55:58;10.07;;;6.57;;
21848;SDS011;11089;49.852;19.700;2023-05-07T15:58:59;8.52;;;6.82;;
21848;SDS011;11089;49.852;19.700;2023-05-07T16:02:01;10.38;;;7.15;;
21848;SDS011;11089;49.852;19.700;2023-05-07T16:05:03;12.68;;;7.38;;
21848;SDS011;11089;49.852;19.700;2023-05-07T16:08:04;10.32;;;7.05;;
21848;SDS011;11089;49.852;19.700;2023-05-07T16:11:05;11.68;;;7.10;;
21848;SDS011;11089;49.852;19.700;2023-05-07T16:14:06;9.75;;;7.40;;
21848;SDS011;11089;49.852;19.700;2023-05-07T16:17:07;12.50;;;7.78;;
21848;SDS011;11089;49.852;19.700;2023-05-07T16:20:08;11.95;;;7.68;;
21848;SDS011;11089;49.852;19.700;2023-05-07T16:23:12;11.43;;;7.20;;
21848;SDS011;11089;49.852;19.700;2023-05-07T16:26:13;11.20;;;7.38;;
21848;SDS011;11089;49.852;19.700;2023-05-07T16:29:13;12.32;;;7.70;;
21848;SDS011;11089;49.852;19.700;2023-05-07T16:32:15;12.10;;;8.10;;
21848;SDS011;11089;49.852;19.700;2023-05-07T16:35:16;14.15;;;7.70;;
21848;SDS011;11089;49.852;19.700;2023-05-07T16:38:17;12.80;;;8.02;;
21848;SDS011;11089;49.852;19.700;2023-05-07T16:41:18;10.93;;;7.57;;
21848;SDS011;11089;49.852;19.700;2023-05-07T16:44:18;14.57;;;8.70;;
21848;SDS011;11089;49.852;19.700;2023-05-07T16:47:19;12.57;;;8.50;;
21848;SDS011;11089;49.852;19.700;2023-05-07T16:50:20;12.40;;;7.70;;
21848;SDS011;11089;49.852;19.700;2023-05-07T16:53:21;10.57;;;7.53;;
21848;SDS011;11089;49.852;19.700;2023-05-07T16:56:22;11.25;;;8.13;;
21848;SDS011;11089;49.852;19.700;2023-05-07T16:59:26;11.15;;;7.32;;
21848;SDS011;11089;49.852;19.700;2023-05-07T17:02:31;11.18;;;7.70;;
21848;SDS011;11089;49.852;19.700;2023-05-07T17:05:34;9.30;;;7.63;;
21848;SDS011;11089;49.852;19.700;2023-05-07T17:08:35;11.95;;;7.03;;
21848;SDS011;11089;49.852;19.700;2023-05-07T17:11:36;10.52;;;7.05;;
21848;SDS011;11089;49.852;19.700;2023-05-07T17:14:37;9.60;;;6.97;;
21848;SDS011;11089;49.852;19.700;2023-05-07T17:17:38;10.20;;;7.32;;
21848;SDS011;11089;49.852;19.700;2023-05-07T17:20:40;11.30;;;7.15;;
21848;SDS011;11089;49.852;19.700;2023-05-07T17:23:41;9.60;;;6.45;;
21848;SDS011;11089;49.852;19.700;2023-05-07T17:26:42;7.93;;;6.30;;
21848;SDS011;11089;49.852;19.700;2023-05-07T17:29:43;12.07;;;7.38;;
21848;SDS011;11089;49.852;19.700;2023-05-07T17:32:44;12.50;;;6.97;;
21848;SDS011;11089;49.852;19.700;2023-05-07T17:35:45;11.45;;;6.97;;
21848;SDS011;11089;49.852;19.700;2023-05-07T17:38:46;9.00;;;6.43;;
21848;SDS011;11089;49.852;19.700;2023-05-07T17:41:47;10.48;;;6.72;;
21848;SDS011;11089;49.852;19.700;2023-05-07T17:44:48;10.75;;;7.22;;
21848;SDS011;11089;49.852;19.700;2023-05-07T17:47:49;10.48;;;7.40;;
21848;SDS011;11089;49.852;19.700;2023-05-07T17:50:50;12.52;;;6.93;;
21848;SDS011;11089;49.852;19.700;2023-05-07T17:53:51;13.25;;;8.02;;
21848;SDS011;11089;49.852;19.700;2023-05-07T17:56:52;12.38;;;7.47;;
21848;SDS011;11089;49.852;19.700;2023-05-07T17:59:53;12.60;;;8.18;;